sensor_id;sensor_type;location;lat;lon;timestamp;P1;durP1;ratioP1;P2;durP2;ratioP2
54177;SDS011;40085;53.004;6.770;2022-09-12T00:01:08;5.18;;;4.20;;
54177;SDS011;40085;53.004;6.770;2022-09-12T00:03:35;6.80;;;5.00;;
54177;SDS011;40085;53.004;6.770;2022-09-12T00:06:14;6.13;;;4.53;;
54177;SDS011;40085;53.004;6.770;2022-09-12T00:08:42;5.38;;;4.00;;
54177;SDS011;40085;53.004;6.770;2022-09-12T00:11:08;5.30;;;4.13;;
54177;SDS011;40085;53.004;6.770;2022-09-12T00:13:36;4.88;;;4.00;;
54177;SDS011;40085;53.004;6.770;2022-09-12T00:16:03;5.68;;;4.22;;
54177;SDS011;40085;53.004;6.770;2022-09-12T00:18:30;9.32;;;4.88;;
54177;SDS011;40085;53.004;6.770;2022-09-12T00:20:56;6.10;;;4.80;;
54177;SDS011;40085;53.004;6.770;2022-09-12T00:23:26;7.13;;;4.30;;
54177;SDS011;40085;53.004;6.770;2022-09-12T00:25:51;6.15;;;4.03;;
54177;SDS011;40085;53.004;6.770;2022-09-12T00:28:17;7.05;;;4.32;;
54177;SDS011;40085;53.004;6.770;2022-09-12T00:30:45;5.70;;;4.13;;
54177;SDS011;40085;53.004;6.770;2022-09-12T00:33:12;6.03;;;3.75;;
54177;SDS011;40085;53.004;6.770;2022-09-12T00:35:43;6.97;;;4.72;;
54177;SDS011;40085;53.004;6.770;2022-09-12T00:40:37;5.40;;;4.28;;
54177;SDS011;40085;53.004;6.770;2022-09-12T00:43:03;7.07;;;4.97;;
54177;SDS011;40085;53.004;6.770;2022-09-12T00:45:30;7.60;;;4.55;;
54177;SDS011;40085;53.004;6.770;2022-09-12T00:47:57;6.28;;;4.30;;
54177;SDS011;40085;53.004;6.770;2022-09-12T00:50:27;13.55;;;5.65;;
54177;SDS011;40085;53.004;6.770;2022-09-12T00:52:59;6.97;;;5.20;;
54177;SDS011;40085;53.004;6.770;2022-09-12T00:55:35;8.65;;;5.13;;
54177;SDS011;40085;53.004;6.770;2022-09-12T01:00:30;6.50;;;5.18;;
54177;SDS011;40085;53.004;6.770;2022-09-12T01:03:00;6.88;;;5.13;;
54177;SDS011;40085;53.004;6.770;2022-09-12T01:05:35;8.07;;;5.50;;
54177;SDS011;40085;53.004;6.770;2022-09-12T01:08:04;9.15;;;5.30;;
54177;SDS011;40085;53.004;6.770;2022-09-12T01:10:31;5.72;;;4.45;;
54177;SDS011;40085;53.004;6.770;2022-09-12T01:12:59;7.13;;;4.65;;
54177;SDS011;40085;53.004;6.770;2022-09-12T01:15:27;6.25;;;4.75;;
54177;SDS011;40085;53.004;6.770;2022-09-12T01:20:29;7.05;;;5.07;;
54177;SDS011;40085;53.004;6.770;2022-09-12T01:33:41;7.65;;;5.75;;
54177;SDS011;40085;53.004;6.770;2022-09-12T01:36:50;8.32;;;6.03;;
54177;SDS011;40085;53.004;6.770;2022-09-12T01:39:30;6.93;;;5.40;;
54177;SDS011;40085;53.004;6.770;2022-09-12T01:42:14;10.95;;;6.47;;
54177;SDS011;40085;53.004;6.770;2022-09-12T01:44:50;7.93;;;5.70;;
54177;SDS011;40085;53.004;6.770;2022-09-12T01:47:40;8.13;;;5.95;;
54177;SDS011;40085;53.004;6.770;2022-09-12T01:50:12;11.27;;;6.30;;
54177;SDS011;40085;53.004;6.770;2022-09-12T01:58:42;9.07;;;6.47;;
54177;SDS011;40085;53.004;6.770;2022-09-12T02:01:11;9.88;;;6.63;;
54177;SDS011;40085;53.004;6.770;2022-09-12T02:06:14;8.45;;;6.15;;
54177;SDS011;40085;53.004;6.770;2022-09-12T02:08:51;8.82;;;6.22;;
54177;SDS011;40085;53.004;6.770;2022-09-12T02:11:20;11.65;;;6.57;;
54177;SDS011;40085;53.004;6.770;2022-09-12T02:13:52;10.90;;;6.50;;
54177;SDS011;40085;53.004;6.770;2022-09-12T02:19:22;11.98;;;7.03;;
54177;SDS011;40085;53.004;6.770;2022-09-12T02:21:56;11.77;;;6.55;;
54177;SDS011;40085;53.004;6.770;2022-09-12T02:24:27;11.65;;;6.57;;
54177;SDS011;40085;53.004;6.770;2022-09-12T02:26:58;13.02;;;7.78;;
54177;SDS011;40085;53.004;6.770;2022-09-12T02:29:30;11.70;;;7.60;;
54177;SDS011;40085;53.004;6.770;2022-09-12T02:31:57;12.70;;;7.57;;
54177;SDS011;40085;53.004;6.770;2022-09-12T02:34:46;11.90;;;7.55;;
54177;SDS011;40085;53.004;6.770;2022-09-12T02:39:50;11.32;;;7.22;;
54177;SDS011;40085;53.004;6.770;2022-09-12T02:42:19;11.38;;;7.72;;
54177;SDS011;40085;53.004;6.770;2022-09-12T02:44:45;12.65;;;8.32;;
54177;SDS011;40085;53.004;6.770;2022-09-12T02:47:15;13.07;;;8.73;;
54177;SDS011;40085;53.004;6.770;2022-09-12T02:49:48;14.65;;;7.82;;
54177;SDS011;40085;53.004;6.770;2022-09-12T02:52:14;13.30;;;8.00;;
54177;SDS011;40085;53.004;6.770;2022-09-12T02:54:40;14.52;;;8.73;;
54177;SDS011;40085;53.004;6.770;2022-09-12T02:57:16;12.93;;;8.32;;
54177;SDS011;40085;53.004;6.770;2022-09-12T02:59:44;14.75;;;9.00;;
54177;SDS011;40085;53.004;6.770;2022-09-12T03:08:16;13.77;;;8.30;;
54177;SDS011;40085;53.004;6.770;2022-09-12T03:11:02;14.27;;;9.32;;
54177;SDS011;40085;53.004;6.770;2022-09-12T03:14:09;14.20;;;8.57;;
54177;SDS011;40085;53.004;6.770;2022-09-12T03:17:12;12.75;;;8.45;;
54177;SDS011;40085;53.004;6.770;2022-09-12T03:22:18;18.00;;;9.63;;
54177;SDS011;40085;53.004;6.770;2022-09-12T03:24:59;19.13;;;10.18;;
54177;SDS011;40085;53.004;6.770;2022-09-12T03:27:52;16.35;;;9.43;;
54177;SDS011;40085;53.004;6.770;2022-09-12T03:30:46;17.00;;;8.32;;
54177;SDS011;40085;53.004;6.770;2022-09-12T03:33:16;16.33;;;8.98;;
54177;SDS011;40085;53.004;6.770;2022-09-12T03:35:43;18.77;;;10.50;;
54177;SDS011;40085;53.004;6.770;2022-09-12T03:38:10;15.80;;;8.65;;
54177;SDS011;40085;53.004;6.770;2022-09-12T03:40:37;13.23;;;8.23;;
54177;SDS011;40085;53.004;6.770;2022-09-12T03:43:03;14.68;;;8.50;;
54177;SDS011;40085;53.004;6.770;2022-09-12T03:45:30;13.48;;;9.50;;
54177;SDS011;40085;53.004;6.770;2022-09-12T03:47:55;16.80;;;9.80;;
54177;SDS011;40085;53.004;6.770;2022-09-12T03:50:22;14.27;;;8.32;;
54177;SDS011;40085;53.004;6.770;2022-09-12T03:52:48;17.77;;;8.65;;
54177;SDS011;40085;53.004;6.770;2022-09-12T03:55:13;19.05;;;9.45;;
54177;SDS011;40085;53.004;6.770;2022-09-12T03:57:39;14.20;;;9.00;;
54177;SDS011;40085;53.004;6.770;2022-09-12T04:00:05;18.98;;;9.23;;
54177;SDS011;40085;53.004;6.770;2022-09-12T04:02:33;15.50;;;8.70;;
54177;SDS011;40085;53.004;6.770;2022-09-12T04:04:59;16.10;;;8.90;;
54177;SDS011;40085;53.004;6.770;2022-09-12T04:07:24;16.70;;;9.07;;
54177;SDS011;40085;53.004;6.770;2022-09-12T04:09:50;15.75;;;9.25;;
54177;SDS011;40085;53.004;6.770;2022-09-12T04:12:17;20.67;;;8.95;;
54177;SDS011;40085;53.004;6.770;2022-09-12T04:14:43;15.10;;;9.23;;
54177;SDS011;40085;53.004;6.770;2022-09-12T04:17:09;19.10;;;10.00;;
54177;SDS011;40085;53.004;6.770;2022-09-12T04:19:35;13.65;;;9.20;;
54177;SDS011;40085;53.004;6.770;2022-09-12T04:22:01;13.52;;;8.70;;
54177;SDS011;40085;53.004;6.770;2022-09-12T04:24:27;18.45;;;9.55;;
54177;SDS011;40085;53.004;6.770;2022-09-12T04:26:53;18.65;;;9.98;;
54177;SDS011;40085;53.004;6.770;2022-09-12T04:29:18;15.68;;;9.50;;
54177;SDS011;40085;53.004;6.770;2022-09-12T04:31:44;14.70;;;8.60;;
54177;SDS011;40085;53.004;6.770;2022-09-12T04:34:10;13.48;;;8.48;;
54177;SDS011;40085;53.004;6.770;2022-09-12T04:36:36;14.48;;;9.35;;
54177;SDS011;40085;53.004;6.770;2022-09-12T04:39:02;15.30;;;9.32;;
54177;SDS011;40085;53.004;6.770;2022-09-12T04:41:30;15.68;;;9.38;;
54177;SDS011;40085;53.004;6.770;2022-09-12T04:43:57;15.05;;;8.73;;
54177;SDS011;40085;53.004;6.770;2022-09-12T04:46:28;16.40;;;8.63;;
54177;SDS011;40085;53.004;6.770;2022-09-12T04:48:55;15.70;;;9.07;;
54177;SDS011;40085;53.004;6.770;2022-09-12T04:51:27;16.92;;;10.15;;
54177;SDS011;40085;53.004;6.770;2022-09-12T04:54:05;20.23;;;10.07;;
54177;SDS011;40085;53.004;6.770;2022-09-12T04:56:35;17.48;;;9.80;;
54177;SDS011;40085;53.004;6.770;2022-09-12T04:59:03;19.10;;;9.80;;
54177;SDS011;40085;53.004;6.770;2022-09-12T05:01:28;18.90;;;9.75;;
54177;SDS011;40085;53.004;6.770;2022-09-12T05:03:55;15.10;;;8.85;;
54177;SDS011;40085;53.004;6.770;2022-09-12T05:06:23;13.43;;;9.02;;
54177;SDS011;40085;53.004;6.770;2022-09-12T05:08:54;16.55;;;9.75;;
54177;SDS011;40085;53.004;6.770;2022-09-12T05:11:24;18.35;;;10.43;;
54177;SDS011;40085;53.004;6.770;2022-09-12T05:13:51;17.90;;;10.27;;
54177;SDS011;40085;53.004;6.770;2022-09-12T05:16:17;18.58;;;10.10;;
54177;SDS011;40085;53.004;6.770;2022-09-12T05:18:44;22.17;;;10.77;;
54177;SDS011;40085;53.004;6.770;2022-09-12T05:21:11;20.75;;;10.15;;
54177;SDS011;40085;53.004;6.770;2022-09-12T05:23:39;17.17;;;9.95;;
54177;SDS011;40085;53.004;6.770;2022-09-12T05:26:05;18.33;;;9.95;;
54177;SDS011;40085;53.004;6.770;2022-09-12T05:28:35;16.50;;;10.00;;
54177;SDS011;40085;53.004;6.770;2022-09-12T05:31:21;19.30;;;10.40;;
54177;SDS011;40085;53.004;6.770;2022-09-12T05:33:49;17.30;;;8.70;;
54177;SDS011;40085;53.004;6.770;2022-09-12T05:36:21;19.70;;;9.80;;
54177;SDS011;40085;53.004;6.770;2022-09-12T05:38:53;16.67;;;8.90;;
54177;SDS011;40085;53.004;6.770;2022-09-12T05:41:23;18.00;;;10.48;;
54177;SDS011;40085;53.004;6.770;2022-09-12T05:43:51;15.88;;;10.07;;
54177;SDS011;40085;53.004;6.770;2022-09-12T05:46:19;19.67;;;10.40;;
54177;SDS011;40085;53.004;6.770;2022-09-12T05:48:47;22.00;;;9.93;;
54177;SDS011;40085;53.004;6.770;2022-09-12T05:53:43;19.90;;;10.90;;
54177;SDS011;40085;53.004;6.770;2022-09-12T05:56:21;19.70;;;10.65;;
54177;SDS011;40085;53.004;6.770;2022-09-12T05:58:53;20.67;;;11.40;;
54177;SDS011;40085;53.004;6.770;2022-09-12T06:01:24;19.02;;;10.35;;
54177;SDS011;40085;53.004;6.770;2022-09-12T06:03:51;20.77;;;10.70;;
54177;SDS011;40085;53.004;6.770;2022-09-12T06:06:19;20.70;;;10.55;;
54177;SDS011;40085;53.004;6.770;2022-09-12T06:08:47;18.48;;;10.43;;
54177;SDS011;40085;53.004;6.770;2022-09-12T06:11:15;20.10;;;10.70;;
54177;SDS011;40085;53.004;6.770;2022-09-12T06:13:43;21.23;;;11.32;;
54177;SDS011;40085;53.004;6.770;2022-09-12T06:16:10;20.92;;;10.95;;
54177;SDS011;40085;53.004;6.770;2022-09-12T06:18:46;20.73;;;10.93;;
54177;SDS011;40085;53.004;6.770;2022-09-12T06:21:13;20.13;;;10.07;;
54177;SDS011;40085;53.004;6.770;2022-09-12T06:23:39;21.83;;;11.13;;
54177;SDS011;40085;53.004;6.770;2022-09-12T06:26:06;23.17;;;10.93;;
54177;SDS011;40085;53.004;6.770;2022-09-12T06:28:34;18.98;;;10.68;;
54177;SDS011;40085;53.004;6.770;2022-09-12T06:31:03;25.02;;;11.70;;
54177;SDS011;40085;53.004;6.770;2022-09-12T06:33:36;25.13;;;11.00;;
54177;SDS011;40085;53.004;6.770;2022-09-12T06:36:07;21.17;;;11.30;;
54177;SDS011;40085;53.004;6.770;2022-09-12T06:38:38;18.67;;;9.35;;
54177;SDS011;40085;53.004;6.770;2022-09-12T06:41:05;26.55;;;11.38;;
54177;SDS011;40085;53.004;6.770;2022-09-12T06:43:32;22.60;;;10.88;;
54177;SDS011;40085;53.004;6.770;2022-09-12T06:45:59;24.55;;;12.60;;
54177;SDS011;40085;53.004;6.770;2022-09-12T06:48:25;19.13;;;9.60;;
54177;SDS011;40085;53.004;6.770;2022-09-12T06:50:59;19.38;;;10.18;;
54177;SDS011;40085;53.004;6.770;2022-09-12T06:53:30;19.50;;;11.30;;
54177;SDS011;40085;53.004;6.770;2022-09-12T06:56:16;20.30;;;9.70;;
54177;SDS011;40085;53.004;6.770;2022-09-12T06:58:45;21.33;;;11.13;;
54177;SDS011;40085;53.004;6.770;2022-09-12T07:01:45;19.77;;;11.75;;
54177;SDS011;40085;53.004;6.770;2022-09-12T07:04:05;16.75;;;10.05;;
54177;SDS011;40085;53.004;6.770;2022-09-12T07:06:35;25.98;;;11.27;;
54177;SDS011;40085;53.004;6.770;2022-09-12T07:09:03;20.70;;;10.32;;
54177;SDS011;40085;53.004;6.770;2022-09-12T07:11:32;20.23;;;10.13;;
54177;SDS011;40085;53.004;6.770;2022-09-12T07:14:01;19.80;;;10.65;;
54177;SDS011;40085;53.004;6.770;2022-09-12T07:16:30;20.33;;;11.02;;
54177;SDS011;40085;53.004;6.770;2022-09-12T07:18:57;21.75;;;10.20;;
54177;SDS011;40085;53.004;6.770;2022-09-12T07:21:24;18.52;;;10.50;;
54177;SDS011;40085;53.004;6.770;2022-09-12T07:23:50;21.13;;;11.23;;
54177;SDS011;40085;53.004;6.770;2022-09-12T07:26:19;19.20;;;10.90;;
54177;SDS011;40085;53.004;6.770;2022-09-12T07:28:45;22.88;;;10.90;;
54177;SDS011;40085;53.004;6.770;2022-09-12T07:31:17;20.27;;;10.23;;
54177;SDS011;40085;53.004;6.770;2022-09-12T07:33:43;19.10;;;10.88;;
54177;SDS011;40085;53.004;6.770;2022-09-12T07:36:10;20.08;;;9.63;;
54177;SDS011;40085;53.004;6.770;2022-09-12T07:38:38;17.83;;;10.23;;
54177;SDS011;40085;53.004;6.770;2022-09-12T07:41:16;24.23;;;9.98;;
54177;SDS011;40085;53.004;6.770;2022-09-12T07:43:44;19.75;;;10.30;;
54177;SDS011;40085;53.004;6.770;2022-09-12T07:46:11;18.75;;;9.73;;
54177;SDS011;40085;53.004;6.770;2022-09-12T07:48:38;19.17;;;10.13;;
54177;SDS011;40085;53.004;6.770;2022-09-12T07:51:06;17.83;;;9.05;;
54177;SDS011;40085;53.004;6.770;2022-09-12T07:53:34;15.30;;;8.90;;
54177;SDS011;40085;53.004;6.770;2022-09-12T07:56:02;19.10;;;9.90;;
54177;SDS011;40085;53.004;6.770;2022-09-12T07:58:30;18.38;;;9.57;;
54177;SDS011;40085;53.004;6.770;2022-09-12T08:01:39;19.23;;;9.60;;
54177;SDS011;40085;53.004;6.770;2022-09-12T08:03:47;17.88;;;9.05;;
54177;SDS011;40085;53.004;6.770;2022-09-12T08:06:18;18.10;;;8.93;;
54177;SDS011;40085;53.004;6.770;2022-09-12T08:08:45;12.85;;;8.00;;
54177;SDS011;40085;53.004;6.770;2022-09-12T08:11:12;14.85;;;7.65;;
54177;SDS011;40085;53.004;6.770;2022-09-12T08:13:40;14.40;;;7.95;;
54177;SDS011;40085;53.004;6.770;2022-09-12T08:16:09;20.88;;;8.52;;
54177;SDS011;40085;53.004;6.770;2022-09-12T08:18:39;14.18;;;8.25;;
54177;SDS011;40085;53.004;6.770;2022-09-12T08:21:11;14.68;;;7.97;;
54177;SDS011;40085;53.004;6.770;2022-09-12T08:23:37;11.80;;;6.68;;
54177;SDS011;40085;53.004;6.770;2022-09-12T08:26:04;17.02;;;7.70;;
54177;SDS011;40085;53.004;6.770;2022-09-12T08:28:31;15.02;;;7.93;;
54177;SDS011;40085;53.004;6.770;2022-09-12T08:31:02;12.57;;;6.95;;
54177;SDS011;40085;53.004;6.770;2022-09-12T08:33:30;17.38;;;6.68;;
54177;SDS011;40085;53.004;6.770;2022-09-12T08:38:29;14.48;;;6.90;;
54177;SDS011;40085;53.004;6.770;2022-09-12T08:41:00;13.65;;;6.93;;
54177;SDS011;40085;53.004;6.770;2022-09-12T08:46:21;15.00;;;6.85;;
54177;SDS011;40085;53.004;6.770;2022-09-12T08:49:02;11.98;;;6.50;;
54177;SDS011;40085;53.004;6.770;2022-09-12T08:51:32;11.73;;;6.90;;
54177;SDS011;40085;53.004;6.770;2022-09-12T08:53:59;11.18;;;6.40;;
54177;SDS011;40085;53.004;6.770;2022-09-12T08:56:26;12.57;;;6.22;;
54177;SDS011;40085;53.004;6.770;2022-09-12T08:58:56;10.70;;;6.07;;
54177;SDS011;40085;53.004;6.770;2022-09-12T09:20:51;12.52;;;6.40;;
54177;SDS011;40085;53.004;6.770;2022-09-12T09:23:28;13.45;;;6.82;;
54177;SDS011;40085;53.004;6.770;2022-09-12T09:28:49;12.27;;;7.47;;
54177;SDS011;40085;53.004;6.770;2022-09-12T09:31:22;17.60;;;8.23;;
54177;SDS011;40085;53.004;6.770;2022-09-12T09:39:02;17.33;;;8.65;;
54177;SDS011;40085;53.004;6.770;2022-09-12T09:41:51;17.55;;;8.75;;
54177;SDS011;40085;53.004;6.770;2022-09-12T09:44:20;20.30;;;8.60;;
54177;SDS011;40085;53.004;6.770;2022-09-12T09:46:53;12.40;;;7.20;;
54177;SDS011;40085;53.004;6.770;2022-09-12T09:49:20;19.20;;;9.95;;
54177;SDS011;40085;53.004;6.770;2022-09-12T09:51:46;19.73;;;9.70;;
54177;SDS011;40085;53.004;6.770;2022-09-12T09:54:17;17.67;;;9.85;;
54177;SDS011;40085;53.004;6.770;2022-09-12T09:56:49;16.05;;;9.55;;
54177;SDS011;40085;53.004;6.770;2022-09-12T10:01:58;19.02;;;9.90;;
54177;SDS011;40085;53.004;6.770;2022-09-12T10:04:51;22.92;;;10.15;;
54177;SDS011;40085;53.004;6.770;2022-09-12T10:07:19;23.50;;;11.10;;
54177;SDS011;40085;53.004;6.770;2022-09-12T10:12:39;18.33;;;9.90;;
54177;SDS011;40085;53.004;6.770;2022-09-12T10:15:19;21.58;;;9.57;;
54177;SDS011;40085;53.004;6.770;2022-09-12T10:18:02;14.20;;;8.50;;
54177;SDS011;40085;53.004;6.770;2022-09-12T10:20:50;16.63;;;8.32;;
54177;SDS011;40085;53.004;6.770;2022-09-12T10:25:46;19.80;;;9.55;;
54177;SDS011;40085;53.004;6.770;2022-09-12T10:28:22;20.48;;;8.85;;
54177;SDS011;40085;53.004;6.770;2022-09-12T10:30:53;18.17;;;9.07;;
54177;SDS011;40085;53.004;6.770;2022-09-12T10:33:20;15.85;;;8.88;;
54177;SDS011;40085;53.004;6.770;2022-09-12T10:35:48;18.50;;;8.90;;
54177;SDS011;40085;53.004;6.770;2022-09-12T10:38:20;16.02;;;7.97;;
54177;SDS011;40085;53.004;6.770;2022-09-12T10:41:10;17.52;;;8.48;;
54177;SDS011;40085;53.004;6.770;2022-09-12T10:43:37;17.23;;;9.18;;
54177;SDS011;40085;53.004;6.770;2022-09-12T10:48:42;15.50;;;8.52;;
54177;SDS011;40085;53.004;6.770;2022-09-12T10:54:00;17.55;;;7.68;;
54177;SDS011;40085;53.004;6.770;2022-09-12T10:56:51;12.57;;;7.50;;
54177;SDS011;40085;53.004;6.770;2022-09-12T11:02:36;19.15;;;8.05;;
54177;SDS011;40085;53.004;6.770;2022-09-12T11:10:53;12.77;;;6.85;;
54177;SDS011;40085;53.004;6.770;2022-09-12T11:13:25;14.38;;;7.10;;
54177;SDS011;40085;53.004;6.770;2022-09-12T11:30:01;10.38;;;5.72;;
54177;SDS011;40085;53.004;6.770;2022-09-12T11:40:54;9.55;;;5.18;;
54177;SDS011;40085;53.004;6.770;2022-09-12T11:46:01;9.85;;;5.70;;
54177;SDS011;40085;53.004;6.770;2022-09-12T11:48:46;11.38;;;5.93;;
54177;SDS011;40085;53.004;6.770;2022-09-12T11:51:19;10.13;;;5.30;;
54177;SDS011;40085;53.004;6.770;2022-09-12T11:53:57;8.10;;;5.00;;
54177;SDS011;40085;53.004;6.770;2022-09-12T11:56:42;9.23;;;4.50;;
54177;SDS011;40085;53.004;6.770;2022-09-12T12:01:57;5.93;;;4.07;;
54177;SDS011;40085;53.004;6.770;2022-09-12T12:04:26;7.82;;;4.50;;
54177;SDS011;40085;53.004;6.770;2022-09-12T12:07:06;9.25;;;4.95;;
54177;SDS011;40085;53.004;6.770;2022-09-12T12:09:45;9.00;;;4.50;;
54177;SDS011;40085;53.004;6.770;2022-09-12T12:12:15;8.40;;;4.53;;
54177;SDS011;40085;53.004;6.770;2022-09-12T12:14:48;10.98;;;5.45;;
54177;SDS011;40085;53.004;6.770;2022-09-12T12:17:18;10.43;;;5.13;;
54177;SDS011;40085;53.004;6.770;2022-09-12T12:19:46;7.68;;;4.35;;
54177;SDS011;40085;53.004;6.770;2022-09-12T12:22:22;9.05;;;4.63;;
54177;SDS011;40085;53.004;6.770;2022-09-12T12:24:57;7.60;;;4.32;;
54177;SDS011;40085;53.004;6.770;2022-09-12T12:27:51;9.07;;;4.82;;
54177;SDS011;40085;53.004;6.770;2022-09-12T12:33:06;8.43;;;4.78;;
54177;SDS011;40085;53.004;6.770;2022-09-12T12:38:34;8.43;;;4.75;;
54177;SDS011;40085;53.004;6.770;2022-09-12T12:43:43;6.68;;;3.05;;
54177;SDS011;40085;53.004;6.770;2022-09-12T12:46:17;7.88;;;3.97;;
54177;SDS011;40085;53.004;6.770;2022-09-12T12:48:51;5.70;;;3.78;;
54177;SDS011;40085;53.004;6.770;2022-09-12T12:54:29;6.57;;;4.15;;
54177;SDS011;40085;53.004;6.770;2022-09-12T12:57:17;7.80;;;4.28;;
54177;SDS011;40085;53.004;6.770;2022-09-12T13:00:01;6.50;;;4.22;;
54177;SDS011;40085;53.004;6.770;2022-09-12T13:02:51;6.18;;;4.25;;
54177;SDS011;40085;53.004;6.770;2022-09-12T13:05:40;9.10;;;4.40;;
54177;SDS011;40085;53.004;6.770;2022-09-12T13:13:20;7.50;;;4.03;;
54177;SDS011;40085;53.004;6.770;2022-09-12T13:15:51;6.80;;;3.53;;
54177;SDS011;40085;53.004;6.770;2022-09-12T13:18:22;7.22;;;4.15;;
54177;SDS011;40085;53.004;6.770;2022-09-12T13:23:26;7.85;;;4.97;;
54177;SDS011;40085;53.004;6.770;2022-09-12T13:25:55;8.40;;;4.95;;
54177;SDS011;40085;53.004;6.770;2022-09-12T13:28:22;8.23;;;4.38;;
54177;SDS011;40085;53.004;6.770;2022-09-12T13:33:41;6.50;;;3.80;;
54177;SDS011;40085;53.004;6.770;2022-09-12T13:44:03;8.60;;;5.10;;
54177;SDS011;40085;53.004;6.770;2022-09-12T13:46:34;8.63;;;4.25;;
54177;SDS011;40085;53.004;6.770;2022-09-12T13:49:00;6.82;;;4.13;;
54177;SDS011;40085;53.004;6.770;2022-09-12T13:51:35;5.63;;;3.40;;
54177;SDS011;40085;53.004;6.770;2022-09-12T13:54:01;6.97;;;3.58;;
54177;SDS011;40085;53.004;6.770;2022-09-12T13:56:29;7.15;;;3.75;;
54177;SDS011;40085;53.004;6.770;2022-09-12T13:58:56;4.20;;;2.75;;
54177;SDS011;40085;53.004;6.770;2022-09-12T14:01:24;6.25;;;3.03;;
54177;SDS011;40085;53.004;6.770;2022-09-12T14:04:36;5.10;;;3.17;;
54177;SDS011;40085;53.004;6.770;2022-09-12T14:07:15;5.45;;;2.88;;
54177;SDS011;40085;53.004;6.770;2022-09-12T14:09:44;4.20;;;2.35;;
54177;SDS011;40085;53.004;6.770;2022-09-12T14:12:23;3.75;;;2.70;;
54177;SDS011;40085;53.004;6.770;2022-09-12T14:14:50;3.17;;;2.20;;
54177;SDS011;40085;53.004;6.770;2022-09-12T14:19:47;4.55;;;2.53;;
54177;SDS011;40085;53.004;6.770;2022-09-12T14:22:13;4.38;;;2.42;;
54177;SDS011;40085;53.004;6.770;2022-09-12T14:24:42;4.88;;;2.20;;
54177;SDS011;40085;53.004;6.770;2022-09-12T14:27:19;2.85;;;1.98;;
54177;SDS011;40085;53.004;6.770;2022-09-12T14:29:52;3.40;;;2.28;;
54177;SDS011;40085;53.004;6.770;2022-09-12T14:32:33;5.13;;;2.20;;
54177;SDS011;40085;53.004;6.770;2022-09-12T14:35:18;4.40;;;2.05;;
54177;SDS011;40085;53.004;6.770;2022-09-12T14:37:45;4.32;;;2.22;;
54177;SDS011;40085;53.004;6.770;2022-09-12T14:40:18;3.72;;;2.38;;
54177;SDS011;40085;53.004;6.770;2022-09-12T14:42:46;4.57;;;3.08;;
54177;SDS011;40085;53.004;6.770;2022-09-12T14:45:23;6.05;;;2.83;;
54177;SDS011;40085;53.004;6.770;2022-09-12T14:47:54;3.72;;;2.50;;
54177;SDS011;40085;53.004;6.770;2022-09-12T14:50:24;3.67;;;2.35;;
54177;SDS011;40085;53.004;6.770;2022-09-12T14:53:06;5.40;;;2.67;;
54177;SDS011;40085;53.004;6.770;2022-09-12T14:55:42;5.30;;;3.28;;
54177;SDS011;40085;53.004;6.770;2022-09-12T15:00:53;6.53;;;2.63;;
54177;SDS011;40085;53.004;6.770;2022-09-12T15:03:31;4.60;;;2.75;;
54177;SDS011;40085;53.004;6.770;2022-09-12T15:06:00;4.15;;;2.55;;
54177;SDS011;40085;53.004;6.770;2022-09-12T15:08:27;3.65;;;2.40;;
54177;SDS011;40085;53.004;6.770;2022-09-12T15:10:54;3.67;;;2.40;;
54177;SDS011;40085;53.004;6.770;2022-09-12T15:13:24;3.40;;;2.33;;
54177;SDS011;40085;53.004;6.770;2022-09-12T15:15:55;2.75;;;2.00;;
54177;SDS011;40085;53.004;6.770;2022-09-12T15:18:23;5.55;;;2.50;;
54177;SDS011;40085;53.004;6.770;2022-09-12T15:20:55;4.95;;;2.78;;
54177;SDS011;40085;53.004;6.770;2022-09-12T15:26:12;4.43;;;2.53;;
54177;SDS011;40085;53.004;6.770;2022-09-12T15:28:40;4.45;;;2.22;;
54177;SDS011;40085;53.004;6.770;2022-09-12T15:31:27;2.92;;;2.13;;
54177;SDS011;40085;53.004;6.770;2022-09-12T15:33:56;4.05;;;2.13;;
54177;SDS011;40085;53.004;6.770;2022-09-12T15:36:23;5.10;;;2.30;;
54177;SDS011;40085;53.004;6.770;2022-09-12T15:38:49;3.10;;;1.77;;
54177;SDS011;40085;53.004;6.770;2022-09-12T15:41:17;2.80;;;1.88;;
54177;SDS011;40085;53.004;6.770;2022-09-12T15:43:45;4.47;;;2.40;;
54177;SDS011;40085;53.004;6.770;2022-09-12T15:46:12;3.05;;;1.98;;
54177;SDS011;40085;53.004;6.770;2022-09-12T15:48:39;2.63;;;1.48;;
54177;SDS011;40085;53.004;6.770;2022-09-12T15:51:07;3.92;;;2.05;;
54177;SDS011;40085;53.004;6.770;2022-09-12T15:53:38;5.40;;;2.00;;
54177;SDS011;40085;53.004;6.770;2022-09-12T15:56:05;3.78;;;2.10;;
54177;SDS011;40085;53.004;6.770;2022-09-12T15:58:30;3.33;;;2.00;;
54177;SDS011;40085;53.004;6.770;2022-09-12T16:00:56;3.25;;;2.10;;
54177;SDS011;40085;53.004;6.770;2022-09-12T16:03:26;2.78;;;1.60;;
54177;SDS011;40085;53.004;6.770;2022-09-12T16:05:57;2.03;;;1.60;;
54177;SDS011;40085;53.004;6.770;2022-09-12T16:08:25;3.50;;;2.20;;
54177;SDS011;40085;53.004;6.770;2022-09-12T16:10:54;3.83;;;2.10;;
54177;SDS011;40085;53.004;6.770;2022-09-12T16:13:22;2.83;;;1.70;;
54177;SDS011;40085;53.004;6.770;2022-09-12T16:15:49;2.78;;;1.70;;
54177;SDS011;40085;53.004;6.770;2022-09-12T16:18:15;2.50;;;1.77;;
54177;SDS011;40085;53.004;6.770;2022-09-12T16:20:41;2.00;;;1.70;;
54177;SDS011;40085;53.004;6.770;2022-09-12T16:23:10;2.95;;;1.63;;
54177;SDS011;40085;53.004;6.770;2022-09-12T16:25:37;2.83;;;1.60;;
54177;SDS011;40085;53.004;6.770;2022-09-12T16:28:03;4.85;;;1.95;;
54177;SDS011;40085;53.004;6.770;2022-09-12T16:30:32;2.60;;;1.80;;
54177;SDS011;40085;53.004;6.770;2022-09-12T16:32:58;2.05;;;1.40;;
54177;SDS011;40085;53.004;6.770;2022-09-12T16:35:24;3.78;;;1.90;;
54177;SDS011;40085;53.004;6.770;2022-09-12T16:37:50;3.30;;;1.95;;
54177;SDS011;40085;53.004;6.770;2022-09-12T16:40:16;3.03;;;2.17;;
54177;SDS011;40085;53.004;6.770;2022-09-12T16:42:44;3.85;;;1.58;;
54177;SDS011;40085;53.004;6.770;2022-09-12T16:45:10;5.38;;;1.88;;
54177;SDS011;40085;53.004;6.770;2022-09-12T16:47:36;2.78;;;1.90;;
54177;SDS011;40085;53.004;6.770;2022-09-12T16:50:03;2.15;;;1.50;;
54177;SDS011;40085;53.004;6.770;2022-09-12T16:52:29;2.80;;;1.80;;
54177;SDS011;40085;53.004;6.770;2022-09-12T16:54:55;2.47;;;1.63;;
54177;SDS011;40085;53.004;6.770;2022-09-12T16:57:21;2.88;;;1.75;;
54177;SDS011;40085;53.004;6.770;2022-09-12T16:59:48;2.13;;;1.45;;
54177;SDS011;40085;53.004;6.770;2022-09-12T17:02:13;2.78;;;1.88;;
54177;SDS011;40085;53.004;6.770;2022-09-12T17:04:39;3.53;;;1.90;;
54177;SDS011;40085;53.004;6.770;2022-09-12T17:07:06;3.55;;;2.10;;
54177;SDS011;40085;53.004;6.770;2022-09-12T17:09:32;2.63;;;1.60;;
54177;SDS011;40085;53.004;6.770;2022-09-12T17:11:59;3.88;;;1.90;;
54177;SDS011;40085;53.004;6.770;2022-09-12T17:14:25;6.40;;;1.98;;
54177;SDS011;40085;53.004;6.770;2022-09-12T17:16:51;3.10;;;1.98;;
54177;SDS011;40085;53.004;6.770;2022-09-12T17:19:21;2.72;;;1.70;;
54177;SDS011;40085;53.004;6.770;2022-09-12T17:21:53;2.97;;;1.75;;
54177;SDS011;40085;53.004;6.770;2022-09-12T17:24:20;5.20;;;2.28;;
54177;SDS011;40085;53.004;6.770;2022-09-12T17:26:48;2.47;;;1.75;;
54177;SDS011;40085;53.004;6.770;2022-09-12T17:29:15;2.92;;;1.70;;
54177;SDS011;40085;53.004;6.770;2022-09-12T17:31:41;3.70;;;1.60;;
54177;SDS011;40085;53.004;6.770;2022-09-12T17:34:08;2.78;;;1.80;;
54177;SDS011;40085;53.004;6.770;2022-09-12T17:36:34;2.50;;;1.73;;
54177;SDS011;40085;53.004;6.770;2022-09-12T17:39:01;2.13;;;1.50;;
54177;SDS011;40085;53.004;6.770;2022-09-12T17:41:28;3.38;;;1.70;;
54177;SDS011;40085;53.004;6.770;2022-09-12T17:43:59;2.38;;;1.40;;